createdAt,value
2018-02-01T00:01:47.659Z,98673.09
2018-02-01T00:06:48.975Z,98677.94
2018-02-01T00:09:16.451Z,98678.80
2018-02-01T00:11:43.908Z,98675.37
2018-02-01T00:14:11.378Z,98681.48
2018-02-01T00:16:38.834Z,98677.38
2018-02-01T00:19:06.299Z,98685.09
2018-02-01T00:21:33.742Z,98683.12
2018-02-01T00:24:01.227Z,98683.77
2018-02-01T00:26:28.679Z,98689.67
2018-02-01T00:28:56.127Z,98701.94
2018-02-01T00:31:23.590Z,98694.59
2018-02-01T00:33:51.035Z,98700.89
2018-02-01T00:36:18.515Z,98699.56
2018-02-01T00:38:45.979Z,98695.36
2018-02-01T00:41:13.451Z,98698.75
2018-02-01T00:43:40.903Z,98694.22
2018-02-01T00:46:08.379Z,98696.95
2018-02-01T00:48:35.832Z,98694.84
2018-02-01T00:51:03.283Z,98690.88
2018-02-01T00:53:30.807Z,98689.43
2018-02-01T00:55:58.255Z,98685.00
2018-02-01T00:58:25.718Z,98684.02
2018-02-01T01:00:53.168Z,98677.75
2018-02-01T01:03:20.635Z,98674.67
2018-02-01T01:05:48.094Z,98679.80
2018-02-01T01:08:15.564Z,98683.78
2018-02-01T01:10:43.032Z,98677.23
2018-02-01T01:13:10.506Z,98681.13
2018-02-01T01:15:37.967Z,98682.05
2018-02-01T01:18:05.423Z,98692.11
2018-02-01T01:20:32.894Z,98701.39
2018-02-01T01:23:00.340Z,98707.09
2018-02-01T01:25:27.820Z,98717.69
2018-02-01T01:27:55.273Z,98707.23
2018-02-01T01:30:22.751Z,98711.77
2018-02-01T01:32:50.206Z,98710.07
2018-02-01T01:35:17.701Z,98707.56
2018-02-01T01:37:45.155Z,98705.27
2018-02-01T01:40:12.627Z,98710.29
2018-02-01T01:42:40.083Z,98710.48
2018-02-01T01:45:07.552Z,98719.79
2018-02-01T01:47:35.007Z,98723.09
2018-02-01T01:50:02.484Z,98720.87
2018-02-01T01:52:29.933Z,98710.06
2018-02-01T01:54:57.383Z,98712.41
2018-02-01T01:57:24.855Z,98710.94
2018-02-01T01:59:52.303Z,98708.78
2018-02-01T02:02:19.774Z,98707.73
2018-02-01T02:04:47.238Z,98704.82
2018-02-01T02:07:14.730Z,98713.02
2018-02-01T02:09:42.215Z,98718.66
2018-02-01T02:12:09.686Z,98717.27
2018-02-01T02:14:37.135Z,98721.58
2018-02-01T02:17:04.603Z,98725.23
2018-02-01T02:19:32.051Z,98716.97
2018-02-01T02:21:59.522Z,98710.64
2018-02-01T02:24:26.977Z,98712.34
2018-02-01T02:26:54.451Z,98702.20
2018-02-01T02:29:21.903Z,98695.52
2018-02-01T02:31:49.376Z,98692.10
2018-02-01T02:34:16.819Z,98688.11
2018-02-01T02:36:44.290Z,98697.23
2018-02-01T02:39:11.751Z,98699.86
2018-02-01T02:41:39.202Z,98687.64
2018-02-01T02:44:06.735Z,98694.73
2018-02-01T02:46:34.185Z,98685.97
2018-02-01T02:49:01.655Z,98687.72
2018-02-01T02:51:29.103Z,98686.61
2018-02-01T02:53:56.575Z,98677.72
2018-02-01T02:56:24.035Z,98681.80
2018-02-01T02:58:51.502Z,98685.39
2018-02-01T03:01:18.958Z,98682.81
2018-02-01T03:03:46.431Z,98682.84
2018-02-01T03:06:13.883Z,98676.59
2018-02-01T03:08:41.354Z,98674.46
2018-02-01T03:11:08.807Z,98673.42
2018-02-01T03:13:36.375Z,98666.16
2018-02-01T03:16:03.826Z,98661.95
2018-02-01T03:18:31.299Z,98659.53
2018-02-01T03:20:58.752Z,98672.91
2018-02-01T03:23:26.219Z,98674.47
2018-02-01T03:25:53.671Z,98664.67
2018-02-01T03:28:21.134Z,98660.42
2018-02-01T03:30:48.580Z,98660.02
2018-02-01T03:33:16.053Z,98663.03
2018-02-01T03:35:44.319Z,98661.31
2018-02-01T03:38:11.791Z,98659.50
2018-02-01T03:40:39.247Z,98658.92
2018-02-01T03:43:06.719Z,98660.79
2018-02-01T03:45:34.179Z,98658.94
2018-02-01T03:48:01.652Z,98660.72
2018-02-01T03:50:29.108Z,98661.55
2018-02-01T03:52:56.585Z,98660.68
2018-02-01T03:55:24.041Z,98656.95
2018-02-01T03:57:51.508Z,98655.48
2018-02-01T04:00:18.963Z,98661.14
2018-02-01T04:02:46.411Z,98659.47
2018-02-01T04:05:13.880Z,98654.23
2018-02-01T04:07:41.330Z,98658.52
2018-02-01T04:10:08.807Z,98651.56
2018-02-01T04:12:36.259Z,98658.64
2018-02-01T04:15:03.727Z,98654.88
2018-02-01T04:17:31.178Z,98652.48
2018-02-01T04:19:58.639Z,98657.47
2018-02-01T04:22:26.091Z,98653.05
2018-02-01T04:24:53.567Z,98648.58
2018-02-01T04:27:21.018Z,98651.83
2018-02-01T04:29:48.491Z,98652.18
2018-02-01T04:32:15.942Z,98646.17
2018-02-01T04:34:43.413Z,98655.03
2018-02-01T04:37:10.858Z,98653.45
2018-02-01T04:39:38.334Z,98650.44
2018-02-01T04:42:05.778Z,98648.01
2018-02-01T04:44:33.251Z,98645.17
2018-02-01T04:47:00.703Z,98643.41
2018-02-01T04:49:28.178Z,98641.31
2018-02-01T04:51:55.642Z,98646.25
2018-02-01T04:54:23.108Z,98645.80
2018-02-01T04:56:50.559Z,98642.44
2018-02-01T04:59:18.039Z,98649.41
2018-02-01T05:01:45.494Z,98646.37
2018-02-01T05:04:12.980Z,98645.27
2018-02-01T05:06:40.434Z,98646.21
2018-02-01T05:09:07.910Z,98648.54
2018-02-01T05:11:35.359Z,98647.14
2018-02-01T05:14:02.822Z,98644.16
2018-02-01T05:16:30.270Z,98639.94
2018-02-01T05:18:57.742Z,98633.02
2018-02-01T05:21:25.187Z,98630.12
2018-02-01T05:23:52.643Z,98629.05
2018-02-01T05:26:20.106Z,98631.20
2018-02-01T05:28:47.561Z,98634.00
2018-02-01T05:31:15.039Z,98628.42
2018-02-01T05:33:42.543Z,98633.88
2018-02-01T05:36:10.019Z,98626.47
2018-02-01T05:38:37.472Z,98626.29
2018-02-01T05:41:04.937Z,98627.63
2018-02-01T05:43:32.388Z,98617.39
2018-02-01T05:45:59.874Z,98619.08
2018-02-01T05:48:27.322Z,98616.58
2018-02-01T05:50:54.793Z,98625.88
2018-02-01T05:53:22.243Z,98625.36
2018-02-01T05:55:49.716Z,98622.12
2018-02-01T05:58:17.243Z,98620.30
2018-02-01T06:00:44.716Z,98625.35
2018-02-01T06:03:12.172Z,98620.36
2018-02-01T06:05:39.646Z,98621.05
2018-02-01T06:08:07.095Z,98617.23
2018-02-01T06:10:34.566Z,98621.64
2018-02-01T06:13:02.027Z,98622.13
2018-02-01T06:15:29.503Z,98623.23
2018-02-01T06:17:56.959Z,98629.26
2018-02-01T06:20:24.434Z,98628.58
2018-02-01T06:22:51.886Z,98632.72
2018-02-01T06:25:19.383Z,98625.22
2018-02-01T06:27:46.840Z,98625.70
2018-02-01T06:30:14.311Z,98628.61
2018-02-01T06:32:41.767Z,98627.03
2018-02-01T06:35:09.238Z,98624.09
2018-02-01T06:37:36.735Z,98623.44
2018-02-01T06:40:04.219Z,98629.84
2018-02-01T06:42:31.679Z,98626.18
2018-02-01T06:44:59.151Z,98626.69
2018-02-01T06:47:26.603Z,98625.33
2018-02-01T06:49:54.068Z,98627.72
2018-02-01T06:52:21.546Z,98625.33
2018-02-01T06:54:48.998Z,98626.83
2018-02-01T06:57:16.469Z,98628.58
2018-02-01T06:59:43.932Z,98636.31
2018-02-01T07:02:11.411Z,98632.64
2018-02-01T07:04:38.882Z,98640.20
2018-02-01T07:07:06.360Z,98636.63
2018-02-01T07:09:33.817Z,98640.73
2018-02-01T07:12:01.298Z,98635.26
2018-02-01T07:14:28.757Z,98646.79
2018-02-01T07:16:56.250Z,98646.04
2018-02-01T07:19:23.704Z,98646.41
2018-02-01T07:21:51.178Z,98651.00
2018-02-01T07:24:18.634Z,98645.28
2018-02-01T07:26:46.113Z,98653.20
2018-02-01T07:29:13.562Z,98653.45
2018-02-01T07:31:41.036Z,98660.78
2018-02-01T07:34:08.494Z,98656.99
2018-02-01T07:36:35.962Z,98666.94
2018-02-01T07:39:03.406Z,98665.66
2018-02-01T07:41:30.872Z,98664.67
2018-02-01T07:43:58.331Z,98663.74
2018-02-01T07:46:28.377Z,98665.49
2018-02-01T07:48:55.815Z,98673.13
2018-02-01T07:51:23.287Z,98661.05
2018-02-01T07:53:50.739Z,98665.50
2018-02-01T07:56:18.212Z,98670.59
2018-02-01T07:58:45.672Z,98672.39
2018-02-01T08:01:13.144Z,98672.20
2018-02-01T08:03:40.590Z,98663.18
2018-02-01T08:06:08.067Z,98666.00
2018-02-01T08:08:35.515Z,98661.91
2018-02-01T08:11:02.962Z,98664.34
2018-02-01T08:13:30.430Z,98662.48
2018-02-01T08:15:57.911Z,98653.48
2018-02-01T08:18:25.384Z,98656.32
2018-02-01T08:20:52.839Z,98656.38
2018-02-01T08:23:20.303Z,98650.67
2018-02-01T08:25:47.758Z,98646.48
2018-02-01T08:28:15.227Z,98648.85
2018-02-01T08:30:42.676Z,98651.02
2018-02-01T08:33:10.147Z,98650.86
2018-02-01T08:35:37.599Z,98654.72
2018-02-01T08:38:05.066Z,98652.08
2018-02-01T08:40:32.538Z,98656.09
2018-02-01T08:43:00.014Z,98656.24
2018-02-01T08:45:27.481Z,98657.72
2018-02-01T08:47:54.947Z,98657.08
2018-02-01T08:50:22.393Z,98652.34
2018-02-01T08:52:49.860Z,98642.70
2018-02-01T08:55:17.316Z,98658.73
2018-02-01T08:57:44.795Z,98658.28
2018-02-01T09:00:12.248Z,98670.44
2018-02-01T09:02:39.720Z,98671.30
2018-02-01T09:05:07.171Z,98673.50
2018-02-01T09:07:34.648Z,98677.41
2018-02-01T09:10:02.104Z,98676.25
2018-02-01T09:12:29.623Z,98679.91
2018-02-01T09:14:57.066Z,98672.49
2018-02-01T09:17:24.822Z,98672.29
2018-02-01T09:19:52.301Z,98678.22
2018-02-01T09:22:19.791Z,98679.53
2018-02-01T09:24:47.259Z,98676.63
2018-02-01T09:27:14.732Z,98684.46
2018-02-01T09:29:42.190Z,98681.67
2018-02-01T09:32:09.640Z,98681.68
2018-02-01T09:34:37.106Z,98678.28
2018-02-01T09:37:04.559Z,98673.89
2018-02-01T09:39:32.036Z,98673.09
2018-02-01T09:41:59.490Z,98672.13
2018-02-01T09:44:26.959Z,98666.50
2018-02-01T09:46:54.415Z,98673.08
2018-02-01T09:49:21.896Z,98685.61
2018-02-01T09:51:49.352Z,98684.53
2018-02-01T09:54:16.824Z,98680.13
2018-02-01T09:56:44.293Z,98678.55
2018-02-01T09:59:11.805Z,98685.13
2018-02-01T10:01:39.243Z,98686.02
2018-02-01T10:04:06.706Z,98682.39
2018-02-01T10:06:34.159Z,98675.28
2018-02-01T10:09:01.634Z,98673.39
2018-02-01T10:11:29.087Z,98675.98
2018-02-01T10:13:56.563Z,98677.11
2018-02-01T10:16:24.931Z,98677.25
2018-02-01T10:18:52.415Z,98685.48
2018-02-01T10:21:19.871Z,98686.02
2018-02-01T10:23:47.372Z,98691.34
2018-02-01T10:26:14.821Z,98685.27
2018-02-01T10:28:42.307Z,98698.37
2018-02-01T10:31:09.754Z,98692.45
2018-02-01T10:33:37.226Z,98697.30
2018-02-01T10:36:04.694Z,98704.13
2018-02-01T10:38:32.183Z,98699.55
2018-02-01T10:40:59.626Z,98698.20
2018-02-01T10:43:27.144Z,98682.05
2018-02-01T10:45:54.595Z,98695.63
2018-02-01T10:48:22.058Z,98681.36
2018-02-01T10:50:49.540Z,98686.86
2018-02-01T10:53:17.014Z,98686.58
2018-02-01T10:55:44.495Z,98682.19
2018-02-01T10:58:11.956Z,98688.88
2018-02-01T11:00:39.426Z,98681.27
2018-02-01T11:03:06.876Z,98676.05
2018-02-01T11:05:34.351Z,98676.67
2018-02-01T11:08:01.809Z,98674.20
2018-02-01T11:10:29.279Z,98663.97
2018-02-01T11:12:56.735Z,98662.22
2018-02-01T11:15:24.199Z,98655.08
2018-02-01T11:17:51.655Z,98654.39
2018-02-01T11:20:19.127Z,98647.34
2018-02-01T11:22:46.575Z,98650.96
2018-02-01T11:25:14.047Z,98646.06
2018-02-01T11:27:41.502Z,98639.52
2018-02-01T11:30:08.974Z,98628.30
2018-02-01T11:32:36.461Z,98629.13
2018-02-01T11:35:03.942Z,98640.47
2018-02-01T11:37:31.387Z,98635.66
2018-02-01T11:39:58.850Z,98620.86
2018-02-01T11:42:26.299Z,98619.16
2018-02-01T11:44:53.766Z,98630.45
2018-02-01T11:47:21.286Z,98618.89
2018-02-01T11:49:48.756Z,98627.12
2018-02-01T11:52:16.203Z,98625.33
2018-02-01T11:54:43.768Z,98625.91
2018-02-01T11:57:11.229Z,98623.41
2018-02-01T11:59:38.708Z,98612.09
2018-02-01T12:02:06.253Z,98614.98
2018-02-01T12:04:33.735Z,98612.84
2018-02-01T12:07:01.230Z,98614.57
2018-02-01T12:09:28.703Z,98613.67
2018-02-01T12:11:56.172Z,98613.09
2018-02-01T12:14:23.661Z,98617.50
2018-02-01T12:16:51.126Z,98615.89
2018-02-01T12:19:18.574Z,98608.25
2018-02-01T12:21:46.039Z,98607.83
2018-02-01T12:24:13.492Z,98601.84
2018-02-01T12:26:40.955Z,98609.50
2018-02-01T12:29:09.359Z,98599.62
2018-02-01T12:31:36.834Z,98605.92
2018-02-01T12:34:04.294Z,98605.94
2018-02-01T12:36:32.096Z,98599.20
2018-02-01T12:38:59.981Z,98603.95
2018-02-01T12:41:28.673Z,98600.88
2018-02-01T12:43:56.528Z,98607.02
2018-02-01T12:46:24.521Z,98599.20
2018-02-01T12:48:52.288Z,98601.59
2018-02-01T12:51:21.180Z,98600.16
2018-02-01T12:53:48.658Z,98603.07
2018-02-01T12:56:16.136Z,98601.19
2018-02-01T12:58:43.590Z,98595.00
2018-02-01T13:01:11.068Z,98601.34
2018-02-01T13:03:38.522Z,98597.47
2018-02-01T13:06:06.029Z,98601.19
2018-02-01T13:08:33.470Z,98593.27
2018-02-01T13:11:00.939Z,98596.36
2018-02-01T13:13:28.403Z,98599.66
2018-02-01T13:15:55.870Z,98586.48
2018-02-01T13:18:23.367Z,98585.08
2018-02-01T13:20:50.834Z,98600.56
2018-02-01T13:23:18.294Z,98603.92
2018-02-01T13:25:45.802Z,98593.70
2018-02-01T13:28:13.251Z,98597.66
2018-02-01T13:30:40.724Z,98587.16
2018-02-01T13:33:08.170Z,98577.85
2018-02-01T13:35:35.647Z,98589.86
2018-02-01T13:38:03.103Z,98584.67
2018-02-01T13:40:30.555Z,98573.28
2018-02-01T13:42:58.054Z,98586.82
2018-02-01T13:45:25.499Z,98590.48
2018-02-01T13:47:52.971Z,98582.42
2018-02-01T13:50:20.419Z,98586.73
2018-02-01T13:52:47.888Z,98582.38
2018-02-01T13:55:15.330Z,98595.45
2018-02-01T13:57:42.813Z,98582.56
2018-02-01T14:00:12.303Z,98589.38
2018-02-01T14:02:39.812Z,98586.22
2018-02-01T14:05:07.303Z,98593.78
2018-02-01T14:07:34.795Z,98589.92
2018-02-01T14:10:02.259Z,98592.41
2018-02-01T14:12:29.731Z,98590.63
2018-02-01T14:14:57.187Z,98577.67
2018-02-01T14:17:24.654Z,98594.45
2018-02-01T14:19:52.099Z,98611.28
2018-02-01T14:22:19.574Z,98609.52
2018-02-01T14:24:47.027Z,98619.59
2018-02-01T14:27:14.500Z,98628.20
2018-02-01T14:29:41.955Z,98626.16
2018-02-01T14:32:09.426Z,98627.39
2018-02-01T14:34:36.931Z,98630.45
2018-02-01T14:37:04.399Z,98632.12
2018-02-01T14:39:33.815Z,98637.87
2018-02-01T14:42:01.287Z,98639.77
2018-02-01T14:44:28.749Z,98642.27
2018-02-01T14:46:56.252Z,98648.28
2018-02-01T14:49:23.703Z,98647.64
2018-02-01T14:51:51.175Z,98646.10
2018-02-01T14:54:18.623Z,98651.24
2018-02-01T14:56:46.102Z,98651.48
2018-02-01T14:59:13.550Z,98649.29
2018-02-01T15:01:41.018Z,98655.30
2018-02-01T15:04:08.484Z,98648.59
2018-02-01T15:06:35.936Z,98653.05
2018-02-01T15:09:03.402Z,98650.48
2018-02-01T15:11:30.856Z,98654.25
2018-02-01T15:13:58.333Z,98665.73
2018-02-01T15:16:25.779Z,98649.58
2018-02-01T15:18:53.257Z,98655.42
2018-02-01T15:21:20.711Z,98655.16
2018-02-01T15:23:48.188Z,98648.88
2018-02-01T15:26:15.650Z,98655.92
2018-02-01T15:28:43.117Z,98663.95
2018-02-01T15:31:10.569Z,98653.66
2018-02-01T15:33:38.044Z,98669.92
2018-02-01T15:36:05.494Z,98677.90
2018-02-01T15:38:32.963Z,98666.16
2018-02-01T15:41:00.415Z,98677.54
2018-02-01T15:43:27.890Z,98684.50
2018-02-01T15:45:55.342Z,98678.00
2018-02-01T15:48:22.808Z,98668.16
2018-02-01T15:50:50.254Z,98679.69
2018-02-01T15:53:17.724Z,98683.56
2018-02-01T15:55:45.171Z,98688.38
2018-02-01T15:58:12.631Z,98692.70
2018-02-01T16:00:40.175Z,98695.09
2018-02-01T16:03:07.590Z,98706.27
2018-02-01T16:05:35.034Z,98703.37
2018-02-01T16:08:02.512Z,98708.73
2018-02-01T16:10:29.968Z,98706.61
2018-02-01T16:12:57.443Z,98701.57
2018-02-01T16:15:24.898Z,98698.66
2018-02-01T16:17:52.375Z,98709.02
2018-02-01T16:20:19.838Z,98717.80
2018-02-01T16:22:47.310Z,98706.94
2018-02-01T16:25:14.766Z,98716.50
2018-02-01T16:27:42.219Z,98721.05
2018-02-01T16:30:09.699Z,98724.02
2018-02-01T16:32:38.022Z,98729.60
2018-02-01T16:35:05.498Z,98732.23
2018-02-01T16:37:32.955Z,98730.44
2018-02-01T16:40:00.423Z,98727.09
2018-02-01T16:42:27.881Z,98731.88
2018-02-01T16:44:55.351Z,98735.29
2018-02-01T16:47:22.807Z,98733.07
2018-02-01T16:49:50.308Z,98743.83
2018-02-01T16:52:18.761Z,98744.30
2018-02-01T16:54:47.388Z,98743.95
2018-02-01T16:57:14.846Z,98750.48
2018-02-01T16:59:42.323Z,98755.39
2018-02-01T17:02:09.762Z,98750.75
2018-02-01T17:04:37.227Z,98754.39
2018-02-01T17:07:04.680Z,98754.81
2018-02-01T17:09:32.148Z,98768.52
2018-02-01T17:11:59.598Z,98774.73
2018-02-01T17:14:27.071Z,98777.03
2018-02-01T17:16:54.518Z,98779.69
2018-02-01T17:19:21.982Z,98781.69
2018-02-01T17:21:49.431Z,98779.58
2018-02-01T17:24:16.908Z,98784.11
2018-02-01T17:26:44.363Z,98780.69
2018-02-01T17:29:11.841Z,98786.50
2018-02-01T17:31:39.298Z,98785.17
2018-02-01T17:34:06.775Z,98787.16
2018-02-01T17:36:34.234Z,98791.63
2018-02-01T17:39:01.714Z,98796.25
2018-02-01T17:41:30.087Z,98797.94
2018-02-01T17:43:57.555Z,98802.34
2018-02-01T17:46:25.071Z,98803.27
2018-02-01T17:48:52.526Z,98800.70
2018-02-01T17:51:19.976Z,98791.45
2018-02-01T17:53:47.446Z,98797.33
2018-02-01T17:56:14.914Z,98793.33
2018-02-01T17:58:42.362Z,98799.67
2018-02-01T18:01:09.832Z,98804.98
2018-02-01T18:03:37.287Z,98806.53
2018-02-01T18:06:04.998Z,98802.34
2018-02-01T18:08:32.458Z,98799.84
2018-02-01T18:10:59.970Z,98796.63
2018-02-01T18:13:27.411Z,98801.70
2018-02-01T18:15:54.888Z,98801.17
2018-02-01T18:18:22.871Z,98804.03
2018-02-01T18:20:50.339Z,98802.61
2018-02-01T18:23:17.814Z,98806.27
2018-02-01T18:25:45.287Z,98808.67
2018-02-01T18:28:12.752Z,98816.48
2018-02-01T18:30:40.241Z,98818.63
2018-02-01T18:33:07.687Z,98817.88
2018-02-01T18:35:35.175Z,98818.23
2018-02-01T18:38:04.148Z,98821.47
2018-02-01T18:40:31.624Z,98817.06
2018-02-01T18:42:59.081Z,98816.42
2018-02-01T18:45:26.905Z,98819.97
2018-02-01T18:47:54.905Z,98825.83
2018-02-01T18:50:22.889Z,98823.17
2018-02-01T18:52:51.289Z,98827.23
2018-02-01T18:55:19.776Z,98825.10
2018-02-01T18:57:47.926Z,98826.03
2018-02-01T19:00:16.790Z,98828.94
2018-02-01T19:02:44.287Z,98834.22
2018-02-01T19:05:15.695Z,98830.89
2018-02-01T19:07:43.508Z,98835.37
2018-02-01T19:10:12.804Z,98839.20
2018-02-01T19:12:40.703Z,98838.06
2018-02-01T19:15:09.517Z,98855.41
2018-02-01T19:17:37.214Z,98852.89
2018-02-01T19:20:05.059Z,98852.44
2018-02-01T19:22:32.819Z,98857.53
2018-02-01T19:25:00.868Z,98861.89
2018-02-01T19:27:30.635Z,98864.20
2018-02-01T19:29:58.111Z,98866.44
2018-02-01T19:32:25.693Z,98866.95
2018-02-01T19:34:53.695Z,98861.41
2018-02-01T19:37:21.967Z,98865.52
2018-02-01T19:39:49.496Z,98862.47
2018-02-01T19:42:18.356Z,98866.96
2018-02-01T19:44:45.883Z,98871.42
2018-02-01T19:47:13.466Z,98870.26
2018-02-01T19:49:41.918Z,98873.51
2018-02-01T19:52:09.632Z,98877.20
2018-02-01T19:54:38.610Z,98874.47
2018-02-01T19:57:07.178Z,98871.86
2018-02-01T19:59:35.119Z,98874.25
2018-02-01T20:02:02.647Z,98877.68
2018-02-01T20:04:31.555Z,98878.78
2018-02-01T20:06:59.082Z,98878.45
2018-02-01T20:09:27.137Z,98876.36
2018-02-01T20:11:54.622Z,98881.12
2018-02-01T20:14:22.154Z,98886.36
2018-02-01T20:16:49.863Z,98880.71
2018-02-01T20:19:17.343Z,98884.55
2018-02-01T20:21:44.824Z,98883.03
2018-02-01T20:24:12.364Z,98885.98
2018-02-01T20:26:40.551Z,98878.61
2018-02-01T20:29:08.056Z,98883.78
2018-02-01T20:31:48.111Z,98883.74
2018-02-01T20:34:16.426Z,98879.52
2018-02-01T20:36:44.218Z,98876.34
2018-02-01T20:39:11.675Z,98877.62
2018-02-01T20:41:39.147Z,98878.13
2018-02-01T20:44:06.646Z,98879.05
2018-02-01T20:46:34.119Z,98882.54
2018-02-01T20:49:01.660Z,98878.72
2018-02-01T20:51:29.568Z,98888.46
2018-02-01T20:53:57.037Z,98885.95
2018-02-01T20:56:24.752Z,98878.77
2018-02-01T20:58:52.278Z,98883.20
2018-02-01T21:01:19.823Z,98880.44
2018-02-01T21:03:47.391Z,98878.80
2018-02-01T21:06:15.739Z,98874.02
2018-02-01T21:08:43.260Z,98877.67
2018-02-01T21:11:11.103Z,98876.92
2018-02-01T21:13:38.631Z,98871.33
2018-02-01T21:16:06.204Z,98877.02
2018-02-01T21:18:33.714Z,98873.08
2018-02-01T21:21:01.224Z,98873.63
2018-02-01T21:23:28.763Z,98877.45
2018-02-01T21:25:56.351Z,98885.25
2018-02-01T21:28:34.689Z,98884.19
2018-02-01T21:31:02.995Z,98879.74
2018-02-01T21:33:30.863Z,98878.81
2018-02-01T21:35:58.606Z,98880.25
2018-02-01T21:38:26.611Z,98874.84
2018-02-01T21:40:54.123Z,98876.02
2018-02-01T21:43:22.020Z,98878.34
2018-02-01T21:45:49.773Z,98882.02
2018-02-01T21:48:17.279Z,98886.19
2018-02-01T21:50:44.788Z,98880.09
2018-02-01T21:53:12.308Z,98884.65
2018-02-01T21:55:39.858Z,98884.58
2018-02-01T21:58:14.243Z,98886.64
2018-02-01T22:00:41.722Z,98885.02
2018-02-01T22:03:09.474Z,98892.46
2018-02-01T22:05:36.942Z,98892.36
2018-02-01T22:08:04.730Z,98891.23
2018-02-01T22:10:32.188Z,98886.91
2018-02-01T22:13:00.103Z,98888.42
2018-02-01T22:15:27.614Z,98877.38
2018-02-01T22:17:55.091Z,98877.21
2018-02-01T22:20:23.083Z,98872.23
2018-02-01T22:22:51.018Z,98875.08
2018-02-01T22:25:18.510Z,98872.13
2018-02-01T22:27:46.053Z,98875.88
2018-02-01T22:30:14.134Z,98881.87
2018-02-01T22:32:41.640Z,98879.53
2018-02-01T22:35:09.126Z,98878.17
2018-02-01T22:37:37.224Z,98884.72
2018-02-01T22:40:04.702Z,98875.18
2018-02-01T22:42:32.467Z,98883.69
2018-02-01T22:44:59.961Z,98881.59
2018-02-01T22:47:27.647Z,98879.37
2018-02-01T22:49:55.114Z,98881.94
2018-02-01T22:52:22.975Z,98890.45
2018-02-01T22:54:51.757Z,98876.20
2018-02-01T22:57:19.213Z,98883.88
2018-02-01T22:59:46.687Z,98884.12
2018-02-01T23:02:14.442Z,98882.26
2018-02-01T23:04:42.068Z,98881.37
2018-02-01T23:07:09.518Z,98880.69
2018-02-01T23:09:37.028Z,98887.55
2018-02-01T23:12:04.498Z,98876.36
2018-02-01T23:14:32.204Z,98875.11
2018-02-01T23:16:59.874Z,98868.83
2018-02-01T23:19:27.387Z,98870.92
2018-02-01T23:21:54.886Z,98871.27
2018-02-01T23:24:22.354Z,98868.90
2018-02-01T23:26:50.275Z,98869.19
2018-02-01T23:29:17.804Z,98856.56
2018-02-01T23:31:45.913Z,98861.26
2018-02-01T23:34:13.415Z,98866.16
2018-02-01T23:36:40.910Z,98858.25
2018-02-01T23:39:08.382Z,98852.40
2018-02-01T23:41:35.830Z,98854.27
2018-02-01T23:44:03.346Z,98857.98
2018-02-01T23:46:31.488Z,98857.47
2018-02-01T23:49:00.055Z,98857.84
2018-02-01T23:51:27.922Z,98852.55
2018-02-01T23:53:55.444Z,98852.06
2018-02-01T23:56:22.939Z,98846.27
2018-02-01T23:58:51.584Z,98850.92
